Sunday, April 20, 2014
13:19 UTC
  |  Log In   |  Register Free
Airport Search:

Richmond Municipal Airport
(KRID)

Richmond Municipal Airport Diagram
No Airport Diagram Available

FAA data valid effective April 3, 2014 until May 29, 2014 (unless otherwise noted).

 
 
 
 
 
 
 
 
 
 
 
 
 
 

Current Aviation Weather for Richmond Municipal Airport (KRID)

The most recent METAR observation for KMWO was updated at: 1255 UTC
METAR Summary (Translated METAR)
KMWO
201255Z AUTO 00000KT 10SM CLR 09/01 A3029 RMK AO2 T00870010
KMGY
(8.6 nm NE from KMWO)
201253Z AUTO 09004KT 10SM CLR 11/01 A3027 RMK AO2 SLP249 T01060011
TAF
No TAF information found within 50 nm of KMWO
  Airport Weather Conditions for KRID

Current weather conditions are
not available for RID


The nearest NOAA weather station
is at MWO, (24.7 nm SE from RID)
  
 Current Weather at MWO
48° F
Fair
East winds at 3.5 mph
MWO NOAA Radar

Pressure: 30.29 in
Humidity: 60%
Wind: East at 3.5 MPH (3 KT)
Dew Point: 34.3°F
Visibility: 10.00 mi


Airport Weather Forecast for KRID

Translated METAR and TAF for KMWO
Translated METAR for KMWO (1319 UTC 20 April 2014)
found at http://aviationweather.gov/adds/metars/
 
METAR text: KMWO 201255Z AUTO 00000KT 10SM CLR 09/01 A3029 RMK AO2 T00870010
Conditions at: KMWO (MIDDLETOWN/HOOK , OH, US) observed 1255 UTC 20 April 2014
Temperature: 8.7°C (48°F)
Dewpoint: 1.0°C (34°F) [RH = 58%]
Pressure (altimeter): 30.29 inches Hg (1025.8 mb)
Winds: calm
Visibility: 10 or more miles (16+ km)
Ceiling: at least 12,000 feet AGL
Clouds: sky clear below 12,000 feet AGL
Weather: automated observation with no human augmentation;
there may or may not be significant weather present at this time
Translated TAF for KMWO

There is no translated TAF available for this airport

Find All Airport Services Find A Hotel Find A Rental Car Find A Golf Course Find A Restaurant $100 Hamburger



FBO's on the Field
FBO Company Facility Photos Services Transportation Aviation Fuel Prices: Prices include tax
Catering Weather Repair Courtesy Rental Type 100LL JetA JetA+ MOGAS 8087
 
Richmond Municipal Airport

This FBO has not yet been rated
FS:Phillips66
Last Updated: Apr-18
Login to update fuel prices
SS:
Contact Richmond Municipal AirportMore FBO Information
 
Add another FBO Facility Photos Catering Weather Repair Courtesy Rental Type 100LL JetA JetA+ MOGAS 8087
Services Transportation Aviation Fuel Prices: Prices include tax


GlobalAir.com Airport Resource Center model-print
model-print
model-print
model-print